Time;durP1;ratioP1;P1;durP2;ratioP2;P2;SDS_P1;SDS_P2;PMS_P1;PMS_P2;Temp;Humidity;BMP_temperature;BMP_pressure;BME280_temperature;BME280_humidity;BME280_pressure;Samples;Min_cycle;Max_cycle;Signal;HPM_P1;HPM_P2
2022/10/02 00:02:17;;;;;;;15.73;3.35;;;13.20;99.90;;;;;;4992026;28;20019;-47
2022/10/02 00:04:58;;;;;;;19.48;3.58;;;13.20;99.90;;;;;;4992193;28;20108;-47
2022/10/02 00:07:47;;;;;;;15.00;3.58;;;13.20;99.90;;;;;;4991882;28;20390;-45
2022/10/02 00:10:37;;;;;;;14.13;4.00;;;13.20;99.90;;;;;;4991827;28;20084;-46
2022/10/02 00:13:06;;;;;;;15.07;4.07;;;13.20;99.90;;;;;;4991558;28;20101;-48
2022/10/02 00:15:34;;;;;;;14.10;3.63;;;13.20;99.90;;;;;;4992119;28;20112;-46
2022/10/02 00:18:10;;;;;;;15.05;3.88;;;13.20;99.90;;;;;;4991727;28;20113;-46
2022/10/02 00:20:50;;;;;;;10.45;3.20;;;13.20;99.90;;;;;;4992108;28;20459;-47
2022/10/02 00:23:18;;;;;;;8.07;2.75;;;13.20;99.90;;;;;;4995312;28;20026;-46
2022/10/02 00:25:59;;;;;;;18.60;4.80;;;13.20;99.90;;;;;;4995533;28;20037;-45
2022/10/02 00:28:34;;;;;;;16.05;3.70;;;13.20;99.90;;;;;;4995005;28;20049;-47
2022/10/02 00:31:27;;;;;;;20.30;3.80;;;13.20;99.90;;;;;;4995508;28;20040;-47
2022/10/02 00:34:30;;;;;;;9.88;3.15;;;13.30;99.90;;;;;;4995202;28;20050;-49
2022/10/02 00:37:03;;;;;;;10.55;3.20;;;13.30;99.90;;;;;;4995265;28;20065;-49
2022/10/02 00:39:44;;;;;;;15.50;4.40;;;13.30;99.90;;;;;;4995235;28;20030;-46
2022/10/02 00:42:24;;;;;;;10.60;3.97;;;13.30;99.90;;;;;;4995061;28;20033;-45
2022/10/02 00:45:18;;;;;;;12.50;3.40;;;13.30;99.90;;;;;;4995333;28;20417;-47
2022/10/02 00:47:58;;;;;;;16.58;3.25;;;13.40;99.90;;;;;;4995756;28;20466;-47
2022/10/02 00:50:35;;;;;;;15.93;3.67;;;13.30;99.90;;;;;;4995063;28;20467;-48
2022/10/02 00:53:12;;;;;;;14.13;3.55;;;13.30;99.90;;;;;;4994869;28;20093;-48
2022/10/02 00:56:03;;;;;;;16.63;4.32;;;13.30;99.90;;;;;;4995004;28;20076;-47
2022/10/02 00:58:36;;;;;;;10.27;3.08;;;13.30;99.90;;;;;;4995256;28;20069;-48
2022/10/02 01:01:10;;;;;;;16.10;4.03;;;13.40;99.90;;;;;;4995110;28;20113;-46
2022/10/02 01:03:45;;;;;;;11.15;2.90;;;13.30;99.90;;;;;;4994651;28;20038;-48
2022/10/02 01:06:11;;;;;;;;;;;13.30;99.90;;;;;;4994285;28;20463;-51
2022/10/02 01:08:37;;;;;;;18.65;3.33;;;13.30;99.90;;;;;;4994655;28;19945;-47
2022/10/02 01:11:05;;;;;;;25.30;3.80;;;13.40;99.90;;;;;;4994517;28;20026;-47
2022/10/02 01:13:31;;;;;;;14.05;4.05;;;13.40;99.90;;;;;;4994307;28;20033;-44
2022/10/02 01:16:01;;;;;;;15.27;3.28;;;13.40;99.90;;;;;;4994629;28;20039;-45
2022/10/02 01:18:29;;;;;;;13.93;3.55;;;13.40;99.90;;;;;;4994419;28;20018;-48
2022/10/02 01:21:35;;;;;;;16.42;3.78;;;13.40;99.90;;;;;;4994678;28;20320;-47
2022/10/02 01:24:14;;;;;;;13.77;2.65;;;13.40;99.90;;;;;;4994169;28;20023;-49
2022/10/02 01:26:40;;;;;;;11.00;3.42;;;13.30;99.90;;;;;;4994401;28;20708;-51
2022/10/02 01:29:06;;;;;;;12.80;2.80;;;13.30;99.90;;;;;;4994552;28;20102;-48
2022/10/02 01:31:34;;;;;;;16.20;3.78;;;13.30;99.90;;;;;;4993636;28;20034;-48
2022/10/02 01:34:00;;;;;;;13.15;3.50;;;13.30;99.90;;;;;;4992902;28;20018;-45
2022/10/02 01:36:26;;;;;;;7.82;2.17;;;13.30;99.90;;;;;;4994319;28;20027;-47
2022/10/02 01:38:52;;;;;;;9.43;3.22;;;13.30;99.90;;;;;;4994038;28;20125;-47
2022/10/02 01:41:19;;;;;;;18.88;5.00;;;13.30;99.90;;;;;;4994055;28;20023;-49
2022/10/02 01:43:49;;;;;;;13.32;2.80;;;13.40;99.90;;;;;;4993560;28;20125;-48
2022/10/02 01:46:32;;;;;;;14.10;4.03;;;13.40;99.90;;;;;;4993766;28;20038;-46
2022/10/02 01:49:10;;;;;;;13.57;3.38;;;13.50;99.90;;;;;;4992748;28;20114;-51
2022/10/02 01:51:55;;;;;;;12.48;4.25;;;13.40;99.90;;;;;;4993966;28;20062;-46
2022/10/02 01:54:39;;;;;;;9.23;2.50;;;13.50;99.90;;;;;;4993890;28;20498;-45
2022/10/02 01:57:33;;;;;;;10.85;3.00;;;13.50;99.90;;;;;;4993844;28;20514;-47
2022/10/02 02:00:10;;;;;;;13.35;4.43;;;13.50;99.90;;;;;;4993974;28;20026;-45
2022/10/02 02:02:57;;;;;;;13.57;3.45;;;13.50;99.90;;;;;;4993518;28;20026;-46
2022/10/02 02:05:40;;;;;;;13.32;2.95;;;13.50;99.90;;;;;;4993576;28;20033;-46
2022/10/02 02:08:21;;;;;;;14.63;2.38;;;13.50;99.90;;;;;;4993688;28;20022;-46
2022/10/02 02:11:03;;;;;;;9.13;2.65;;;13.60;99.90;;;;;;4993544;28;20483;-48
2022/10/02 02:13:55;;;;;;;11.20;2.67;;;13.60;99.90;;;;;;4993214;28;20028;-49
2022/10/02 02:16:43;;;;;;;16.88;2.55;;;13.50;99.90;;;;;;4993431;28;20398;-46
2022/10/02 02:19:24;;;;;;;10.45;2.97;;;13.50;99.90;;;;;;4993483;28;20056;-46
2022/10/02 02:21:57;;;;;;;11.20;3.15;;;13.60;99.90;;;;;;4993238;28;20095;-46
2022/10/02 02:24:45;;;;;;;11.20;3.10;;;13.50;99.90;;;;;;4993549;28;20042;-46
2022/10/02 02:27:18;;;;;;;16.92;3.15;;;13.60;99.90;;;;;;4993229;28;20109;-51
2022/10/02 02:29:48;;;;;;;6.80;2.75;;;13.60;99.90;;;;;;4993153;28;20026;-46
2022/10/02 02:32:17;;;;;;;12.15;3.58;;;13.60;99.90;;;;;;4993012;28;20401;-46
2022/10/02 02:34:48;;;;;;;13.73;2.70;;;13.60;99.90;;;;;;4991896;28;20162;-47
2022/10/02 02:37:18;;;;;;;6.93;2.40;;;13.60;99.90;;;;;;4993013;28;20030;-47
2022/10/02 02:40:16;;;;;;;14.95;3.25;;;13.60;99.90;;;;;;4992885;28;20101;-48
2022/10/02 02:42:50;;;;;;;10.65;2.10;;;13.60;99.90;;;;;;4991407;28;20461;-46
2022/10/02 02:45:19;;;;;;;9.23;3.25;;;13.70;99.90;;;;;;4991171;28;20030;-45
2022/10/02 02:48:01;;;;;;;16.58;2.70;;;13.70;99.90;;;;;;4991643;28;20037;-45
2022/10/02 02:50:42;;;;;;;14.10;3.80;;;13.60;99.90;;;;;;4992699;28;20052;-47
2022/10/02 02:53:18;;;;;;;10.77;2.58;;;13.70;99.90;;;;;;4992615;28;20049;-48
2022/10/02 02:55:54;;;;;;;15.75;2.80;;;13.60;99.90;;;;;;4992924;28;20030;-43
2022/10/02 02:58:36;;;;;;;11.00;2.88;;;13.70;99.90;;;;;;4992789;28;20030;-48
2022/10/02 03:01:01;;;;;;;15.23;3.55;;;13.60;99.90;;;;;;4992761;28;20022;-46
2022/10/02 03:03:27;;;;;;;17.88;4.93;;;13.60;99.90;;;;;;4992602;28;20087;-47
2022/10/02 03:06:12;;;;;;;24.23;3.90;;;13.60;99.90;;;;;;4992772;28;20210;-46
2022/10/02 03:08:38;;;;;;;13.90;3.33;;;13.60;99.90;;;;;;4992457;28;20027;-46
2022/10/02 03:11:14;;;;;;;10.10;2.83;;;13.60;99.90;;;;;;4992517;28;20053;-46
2022/10/02 03:14:04;;;;;;;12.52;3.25;;;13.60;99.90;;;;;;4990888;28;20034;-45
2022/10/02 03:16:51;;;;;;;8.07;2.65;;;13.60;99.90;;;;;;4991200;28;20023;-50
2022/10/02 03:19:20;;;;;;;12.02;3.15;;;13.60;99.90;;;;;;4992268;28;20046;-46
2022/10/02 03:21:48;;;;;;;20.30;3.05;;;13.60;99.90;;;;;;4992351;28;20034;-53
2022/10/02 03:24:17;;;;;;;10.38;2.80;;;13.60;99.90;;;;;;4992377;28;20183;-46
2022/10/02 03:27:22;;;;;;;14.98;2.80;;;13.60;99.90;;;;;;4992367;28;20031;-49
2022/10/02 03:30:05;;;;;;;12.27;2.83;;;13.50;99.90;;;;;;4992165;28;20038;-46
2022/10/02 03:32:32;;;;;;;19.88;3.95;;;13.60;99.90;;;;;;4992178;28;20113;-46
2022/10/02 03:34:59;;;;;;;9.55;2.88;;;13.60;99.90;;;;;;4992203;28;20018;-48
2022/10/02 03:37:26;;;;;;;11.77;2.72;;;13.60;99.90;;;;;;4991925;28;20038;-46
2022/10/02 03:39:52;;;;;;;8.20;3.17;;;13.60;99.90;;;;;;4990977;28;20084;-48
2022/10/02 03:42:24;;;;;;;14.90;3.47;;;13.60;99.90;;;;;;4991861;28;20072;-45
2022/10/02 03:44:49;;;;;;;11.07;3.10;;;13.60;99.90;;;;;;4992022;28;20053;-49
2022/10/02 03:47:15;;;;;;;16.20;3.53;;;13.70;99.90;;;;;;4992319;28;20038;-50
2022/10/02 03:49:41;;;;;;;17.95;3.95;;;13.60;99.90;;;;;;4991895;28;20041;-47
2022/10/02 03:52:12;;;;;;;15.68;4.22;;;13.70;99.90;;;;;;4990440;28;20026;-48
2022/10/02 03:54:37;;;;;;;16.40;3.85;;;13.70;99.90;;;;;;4992504;28;20513;-52
2022/10/02 03:57:06;;;;;;;13.10;2.83;;;13.70;99.90;;;;;;4995967;28;20026;-49
2022/10/02 03:59:47;;;;;;;21.67;3.53;;;13.60;99.90;;;;;;4995853;28;20094;-51
2022/10/02 04:02:22;;;;;;;16.77;4.82;;;13.70;99.90;;;;;;4995645;28;20536;-47
2022/10/02 04:05:00;;;;;;;13.15;3.95;;;13.70;99.90;;;;;;4995772;28;20026;-48
2022/10/02 04:07:32;;;;;;;15.18;4.93;;;13.70;99.90;;;;;;4995740;28;20030;-48
2022/10/02 04:10:30;;;;;;;13.85;3.58;;;13.70;99.90;;;;;;4994427;28;20038;-46
2022/10/02 04:13:09;;;;;;;13.77;3.92;;;13.70;99.90;;;;;;4993172;28;20058;-46
2022/10/02 04:16:00;;;;;;;10.50;3.92;;;13.70;99.90;;;;;;4995836;28;20038;-49
2022/10/02 04:18:38;;;;;;;14.82;4.30;;;13.60;99.90;;;;;;4995431;28;20026;-46
2022/10/02 04:21:20;;;;;;;21.00;3.70;;;13.60;99.90;;;;;;4995657;28;20031;-46
2022/10/02 04:23:51;;;;;;;20.88;6.45;;;13.60;99.90;;;;;;4995293;28;20486;-46
2022/10/02 04:26:22;;;;;;;14.40;3.90;;;13.70;99.90;;;;;;4995392;28;20034;-49
2022/10/02 04:28:55;;;;;;;16.35;4.97;;;13.60;99.90;;;;;;4995215;28;20155;-48
2022/10/02 04:31:26;;;;;;;19.27;4.28;;;13.60;99.90;;;;;;4995322;28;20286;-47
2022/10/02 04:33:52;;;;;;;15.88;4.43;;;13.60;99.90;;;;;;4995034;28;20029;-49
2022/10/02 04:36:36;;;;;;;13.25;4.65;;;13.60;99.90;;;;;;4995027;28;20033;-51
2022/10/02 04:39:16;;;;;;;20.20;4.60;;;13.60;99.90;;;;;;5039341;23;20045;-42
2022/10/02 04:41:54;;;;;;;20.63;6.55;;;13.60;99.90;;;;;;5015602;28;20029;-46
2022/10/02 04:44:34;;;;;;;22.40;5.28;;;13.60;99.90;;;;;;5015694;28;20102;-47
2022/10/02 04:47:17;;;;;;;13.93;4.15;;;13.60;99.90;;;;;;5014608;28;20030;-44
2022/10/02 04:49:55;;;;;;;12.48;4.32;;;13.60;99.90;;;;;;4994994;28;20494;-44
2022/10/02 04:52:26;;;;;;;20.92;4.80;;;13.60;99.90;;;;;;4994701;28;20034;-44
2022/10/02 04:55:24;;;;;;;19.63;4.72;;;13.60;99.90;;;;;;4994949;28;20486;-45
2022/10/02 04:58:15;;;;;;;15.15;4.70;;;13.60;99.90;;;;;;4994866;28;20026;-47
2022/10/02 05:01:11;;;;;;;19.33;5.60;;;13.60;99.90;;;;;;4994966;28;20142;-44
2022/10/02 05:03:58;;;;;;;20.77;6.13;;;13.60;99.90;;;;;;4994787;28;20520;-43
2022/10/02 05:06:56;;;;;;;13.55;5.15;;;13.60;99.90;;;;;;4993807;28;20034;-46
2022/10/02 05:09:33;;;;;;;28.85;6.72;;;13.60;99.90;;;;;;4983784;28;20045;-47
2022/10/02 05:12:32;;;;;;;21.60;5.40;;;13.70;99.90;;;;;;4994397;28;20034;-47
2022/10/02 05:15:08;;;;;;;16.17;4.55;;;13.70;99.90;;;;;;4994462;28;20034;-46
2022/10/02 05:18:00;;;;;;;19.15;4.20;;;13.70;99.90;;;;;;4994598;28;20029;-46
2022/10/02 05:20:49;;;;;;;24.23;5.35;;;13.70;99.90;;;;;;4994720;28;20042;-43
2022/10/02 05:23:40;;;;;;;14.55;4.13;;;13.80;99.90;;;;;;4994167;28;20441;-40
2022/10/02 05:26:38;;;;;;;11.32;4.53;;;13.80;99.90;;;;;;4994593;28;20038;-48
2022/10/02 05:29:30;;;;;;;12.00;3.67;;;13.80;99.90;;;;;;4994050;28;20026;-45
2022/10/02 05:32:15;;;;;;;12.70;5.28;;;13.80;99.90;;;;;;4992772;28;20450;-44
2022/10/02 05:35:24;;;;;;;18.92;5.70;;;13.80;99.90;;;;;;4994390;28;20018;-44
2022/10/02 05:37:57;;;;;;;18.85;3.40;;;13.70;99.90;;;;;;4993905;28;20045;-44
2022/10/02 05:40:30;;;;;;;15.93;3.88;;;13.70;99.90;;;;;;4994196;28;20030;-48
2022/10/02 05:43:05;;;;;;;16.38;3.55;;;13.70;99.90;;;;;;5008787;28;20029;-48
2022/10/02 05:45:53;;;;;;;16.58;4.30;;;13.70;99.90;;;;;;4995176;28;20101;-39
2022/10/02 05:48:54;;;;;;;21.55;5.13;;;13.70;99.90;;;;;;4994907;28;20117;-39
2022/10/02 05:51:35;;;;;;;16.13;3.65;;;13.70;99.90;;;;;;4984916;28;20061;-46
2022/10/02 05:54:11;;;;;;;15.00;4.00;;;13.70;99.90;;;;;;4995297;28;20161;-46
2022/10/02 05:56:38;;;;;;;;;;;13.70;99.90;;;;;;4995345;28;20029;-46
2022/10/02 05:59:18;;;;;;;15.98;4.50;;;13.70;99.90;;;;;;5008869;28;20397;-44
2022/10/02 06:01:48;;;;;;;12.77;3.35;;;13.70;99.90;;;;;;4995531;28;20457;-48
2022/10/02 06:04:19;;;;;;;15.98;3.97;;;13.60;99.90;;;;;;5009081;28;20030;-45
2022/10/02 06:06:50;;;;;;;13.85;3.45;;;13.70;99.90;;;;;;4993668;28;20035;-44
2022/10/02 06:09:18;;;;;;;9.90;3.47;;;13.70;99.90;;;;;;4993601;28;20400;-44
2022/10/02 06:11:56;;;;;;;14.05;4.55;;;13.70;99.90;;;;;;4993617;28;20398;-43
2022/10/02 06:14:40;;;;;;;10.27;3.38;;;13.60;99.90;;;;;;4993505;28;20077;-45
2022/10/02 06:17:24;;;;;;;10.02;3.00;;;13.60;99.90;;;;;;4993537;28;20045;-40
2022/10/02 06:19:51;;;;;;;11.90;2.95;;;13.60;99.90;;;;;;4993288;28;20026;-43
2022/10/02 06:22:25;;;;;;;12.48;3.30;;;13.60;99.90;;;;;;4993436;28;20023;-44
2022/10/02 06:25:05;;;;;;;7.63;2.83;;;13.60;99.90;;;;;;4993309;28;20023;-49
2022/10/02 06:27:38;;;;;;;12.38;3.33;;;13.60;99.90;;;;;;4991339;28;20049;-44
2022/10/02 06:30:08;;;;;;;19.10;4.85;;;13.50;99.90;;;;;;4993101;28;20044;-44
2022/10/02 06:32:42;;;;;;;17.08;3.42;;;13.60;99.90;;;;;;4992978;28;20414;-48
2022/10/02 06:35:13;;;;;;;10.93;4.23;;;13.50;99.90;;;;;;4993082;28;20081;-47
2022/10/02 06:38:09;;;;;;;7.35;3.10;;;13.50;99.90;;;;;;4993080;28;20018;-43
2022/10/02 06:40:46;;;;;;;11.20;3.40;;;13.50;99.90;;;;;;4993111;28;20022;-44
2022/10/02 06:43:21;;;;;;;11.63;2.70;;;13.50;99.90;;;;;;4992613;28;20084;-48
2022/10/02 06:46:01;;;;;;;12.23;3.70;;;13.50;99.90;;;;;;4992958;28;20034;-44
2022/10/02 06:48:57;;;;;;;7.72;3.05;;;13.50;99.90;;;;;;4992954;28;20410;-44
2022/10/02 06:51:41;;;;;;;10.27;2.88;;;13.50;99.90;;;;;;4993171;28;20022;-43
2022/10/02 06:54:44;;;;;;;9.93;2.95;;;13.50;99.90;;;;;;4992869;28;20073;-49
2022/10/02 06:57:13;;;;;;;9.20;3.00;;;13.60;99.90;;;;;;4992984;28;20490;-48
2022/10/02 07:00:16;;;;;;;15.13;2.83;;;13.60;99.90;;;;;;4992906;28;20022;-48
2022/10/02 07:02:48;;;;;;;10.63;2.90;;;13.60;99.90;;;;;;4932196;29;20043;-46
2022/10/02 07:05:25;;;;;;;14.20;3.95;;;13.50;99.90;;;;;;4983943;28;20038;-45
2022/10/02 07:08:18;;;;;;;10.73;2.85;;;13.60;99.90;;;;;;4992829;28;20076;-44
2022/10/02 07:10:51;;;;;;;9.38;3.22;;;13.60;99.90;;;;;;4992648;28;20046;-44
2022/10/02 07:13:46;;;;;;;11.35;2.78;;;13.60;99.90;;;;;;4992426;28;20449;-46
2022/10/02 07:16:23;;;;;;;8.73;2.60;;;13.60;99.90;;;;;;4992813;28;20103;-44
2022/10/02 07:19:01;;;;;;;5.60;3.00;;;13.50;99.90;;;;;;4992390;28;20394;-44
2022/10/02 07:21:42;;;;;;;12.25;3.63;;;13.60;99.90;;;;;;4992565;28;20101;-44
2022/10/02 07:24:26;;;;;;;7.80;2.78;;;13.60;99.90;;;;;;4992123;28;20054;-45
2022/10/02 07:27:01;;;;;;;10.27;3.47;;;13.60;99.90;;;;;;4992567;28;20566;-45
2022/10/02 07:29:41;;;;;;;;;;;13.60;99.90;;;;;;4991849;28;20027;-44
2022/10/02 07:32:25;;;;;;;13.13;4.00;;;13.60;99.90;;;;;;4992152;28;19913;-43
2022/10/02 07:35:07;;;;;;;8.88;2.58;;;13.70;99.90;;;;;;4992544;28;20106;-43
2022/10/02 07:38:10;;;;;;;8.32;2.50;;;13.70;99.90;;;;;;4992533;28;20697;-45
2022/10/02 07:40:58;;;;;;;9.45;3.05;;;13.70;99.90;;;;;;4992580;28;20038;-44
2022/10/02 07:43:48;;;;;;;16.23;4.20;;;13.60;99.90;;;;;;4992313;28;20022;-44
2022/10/02 07:46:39;;;;;;;9.40;4.05;;;13.60;99.90;;;;;;4992518;28;20049;-47
2022/10/02 07:49:25;;;;;;;9.70;2.75;;;13.60;99.90;;;;;;4992137;28;20022;-44
2022/10/02 07:52:09;;;;;;;9.88;2.88;;;13.60;99.90;;;;;;4992356;28;20035;-47
2022/10/02 07:54:53;;;;;;;4.60;2.30;;;13.70;99.90;;;;;;4992330;28;20028;-46
2022/10/02 07:57:44;;;;;;;6.07;2.25;;;13.60;99.90;;;;;;4992428;28;20027;-44
2022/10/02 08:00:14;;;;;;;9.80;3.03;;;13.60;99.90;;;;;;4992082;28;20482;-43
2022/10/02 08:02:55;;;;;;;9.93;2.63;;;13.60;99.90;;;;;;4991886;28;20030;-44
2022/10/02 08:05:29;;;;;;;7.07;3.13;;;13.70;99.90;;;;;;4992162;28;20034;-46
2022/10/02 08:08:01;;;;;;;9.95;2.50;;;13.60;99.90;;;;;;4992070;28;20212;-46
2022/10/02 08:10:34;;;;;;;5.72;2.63;;;13.60;99.90;;;;;;4991900;28;20023;-45
2022/10/02 08:13:22;;;;;;;7.53;2.67;;;13.60;99.90;;;;;;4992009;28;20025;-45
2022/10/02 08:15:52;;;;;;;13.73;3.33;;;13.60;99.90;;;;;;4992400;28;20026;-44
2022/10/02 08:18:32;;;;;;;9.18;3.65;;;13.70;99.90;;;;;;4992049;28;20022;-45
2022/10/02 08:20:59;;;;;;;10.23;3.10;;;13.70;99.90;;;;;;4992110;28;20120;-45
2022/10/02 08:23:32;;;;;;;6.82;2.85;;;13.70;99.90;;;;;;4991823;28;20030;-50
2022/10/02 08:26:07;;;;;;;10.68;3.05;;;13.70;99.90;;;;;;4992049;28;20390;-44
2022/10/02 08:29:04;;;;;;;14.38;4.07;;;13.70;99.90;;;;;;4991384;28;20030;-48
2022/10/02 08:31:31;;;;;;;12.75;4.28;;;13.70;99.90;;;;;;4991886;28;20046;-45
2022/10/02 08:33:59;;;;;;;10.73;4.85;;;13.80;99.90;;;;;;4991861;28;20383;-44
2022/10/02 08:37:06;;;;;;;9.88;4.10;;;13.90;99.90;;;;;;4991631;28;20189;-43
2022/10/02 08:39:35;;;;;;;;;;;13.80;99.90;;;;;;4981347;28;20046;-45
2022/10/02 08:42:25;;;;;;;12.40;4.63;;;13.90;99.90;;;;;;4992777;28;19917;-45
2022/10/02 08:45:16;;;;;;;13.88;3.78;;;13.90;99.90;;;;;;4995579;28;20078;-44
2022/10/02 08:48:22;;;;;;;11.98;3.80;;;13.90;99.90;;;;;;4995469;28;20473;-44
2022/10/02 08:51:21;;;;;;;8.18;3.30;;;13.90;99.90;;;;;;4995134;28;20022;-45
2022/10/02 08:54:05;;;;;;;7.18;2.85;;;13.90;99.90;;;;;;4995053;28;20022;-47
2022/10/02 08:56:36;;;;;;;12.55;3.40;;;13.90;99.90;;;;;;4995628;28;20065;-47
2022/10/02 08:59:26;;;;;;;6.20;3.05;;;13.90;99.90;;;;;;4995084;28;20023;-48
2022/10/02 09:02:35;;;;;;;7.90;3.30;;;13.90;99.90;;;;;;4994831;28;20033;-46
2022/10/02 09:05:29;;;;;;;9.43;2.92;;;13.90;99.90;;;;;;4994771;28;20019;-43
2022/10/02 09:08:06;;;;;;;9.45;3.35;;;13.90;99.90;;;;;;4994937;28;20169;-41
2022/10/02 09:10:51;;;;;;;4.43;2.53;;;13.80;99.90;;;;;;5009717;28;20134;-40
2022/10/02 09:13:25;;;;;;;5.63;4.25;;;13.90;99.90;;;;;;4994747;28;20022;-44
2022/10/02 09:16:08;;;;;;;4.60;2.58;;;14.00;99.90;;;;;;4994855;28;20491;-44
2022/10/02 09:19:20;;;;;;;5.15;2.58;;;13.90;99.90;;;;;;4994877;28;20057;-50
2022/10/02 09:21:58;;;;;;;6.05;2.15;;;14.00;99.90;;;;;;4971178;28;20154;-44
2022/10/02 09:25:01;;;;;;;4.57;2.35;;;14.00;99.90;;;;;;4994588;28;20019;-46
2022/10/02 09:27:54;;;;;;;9.07;2.60;;;13.90;99.90;;;;;;4993855;28;20030;-46
2022/10/02 09:30:46;;;;;;;6.63;3.13;;;14.00;99.90;;;;;;4994269;28;20092;-45
2022/10/02 09:33:33;;;;;;;6.53;2.10;;;14.00;99.90;;;;;;4992958;28;20018;-51
2022/10/02 09:36:23;;;;;;;8.55;3.28;;;14.00;99.90;;;;;;4994517;28;20035;-46
2022/10/02 09:39:27;;;;;;;6.03;1.98;;;14.00;99.90;;;;;;4994345;28;20034;-45
2022/10/02 09:42:14;;;;;;;2.58;1.60;;;14.00;99.90;;;;;;4994001;28;20037;-44
2022/10/02 09:45:01;;;;;;;2.45;1.80;;;14.00;99.90;;;;;;4994581;28;20022;-45
2022/10/02 09:47:52;;;;;;;6.00;1.65;;;13.90;99.90;;;;;;4994281;28;20152;-49
2022/10/02 09:51:04;;;;;;;3.30;1.33;;;13.90;99.90;;;;;;4993729;28;20034;-50
2022/10/02 09:53:41;;;;;;;11.70;2.28;;;13.90;99.90;;;;;;4993543;28;20367;-45
2022/10/02 09:56:28;;;;;;;2.60;1.50;;;13.90;99.90;;;;;;4994453;28;20046;-43
2022/10/02 09:59:11;;;;;;;2.08;1.42;;;13.90;99.90;;;;;;4994282;28;20027;-48
2022/10/02 10:02:14;;;;;;;3.15;1.65;;;13.90;99.90;;;;;;4994132;28;20026;-46
2022/10/02 10:05:33;;;;;;;4.50;1.55;;;13.80;99.90;;;;;;4993856;28;20051;-45
2022/10/02 10:08:16;;;;;;;24.55;15.93;;;13.90;99.90;;;;;;4933916;29;20115;-46
2022/10/02 10:11:11;;;;;;;5.30;4.10;;;13.90;99.90;;;;;;4994220;28;20022;-44
2022/10/02 10:14:06;;;;;;;3.63;2.60;;;13.90;99.90;;;;;;4993608;28;20018;-41
2022/10/02 10:17:09;;;;;;;3.85;1.83;;;13.90;99.90;;;;;;4993646;28;20022;-46
2022/10/02 10:20:05;;;;;;;4.32;2.20;;;13.80;99.90;;;;;;4993536;28;20477;-40
2022/10/02 10:22:48;;;;;;;2.65;1.48;;;13.90;99.90;;;;;;4993582;28;20088;-42
2022/10/02 10:25:35;;;;;;;2.45;1.80;;;13.80;99.90;;;;;;4993540;28;20041;-46
2022/10/02 10:28:16;;;;;;;2.72;1.48;;;13.80;99.90;;;;;;4992984;28;20026;-48
2022/10/02 10:31:27;;;;;;;4.30;1.80;;;13.80;99.90;;;;;;4993333;28;20370;-47
2022/10/02 10:34:26;;;;;;;1.70;1.60;;;13.80;99.90;;;;;;4993431;28;20033;-46
2022/10/02 10:40:50;;;;;;;1.92;1.48;;;14.00;99.90;;;;;;5025079;23;20060;-47
2022/10/02 10:43:18;;;;;;;1.77;1.60;;;14.10;99.90;;;;;;5011828;28;20030;-48
2022/10/02 10:46:01;;;;;;;1.98;1.40;;;14.10;99.90;;;;;;5012358;28;20029;-44
2022/10/02 10:48:26;;;;;;;2.28;1.20;;;14.10;99.90;;;;;;5012426;28;20022;-45
2022/10/02 10:51:13;;;;;;;3.55;1.20;;;14.20;99.90;;;;;;5012146;28;20401;-48
2022/10/02 10:53:57;;;;;;;1.17;1.17;;;14.20;99.90;;;;;;5012117;28;20025;-46
2022/10/02 10:56:36;;;;;;;3.78;3.08;;;14.20;99.90;;;;;;5010678;28;20113;-45
2022/10/02 10:59:28;;;;;;;1.40;1.25;;;14.30;99.90;;;;;;5011944;28;20049;-46
2022/10/02 11:02:13;;;;;;;1.55;1.30;;;14.20;99.90;;;;;;5012040;28;20030;-45
2022/10/02 11:05:15;;;;;;;3.15;1.80;;;14.30;99.90;;;;;;5011438;28;20022;-47
2022/10/02 11:08:05;;;;;;;5.07;1.30;;;14.30;99.90;;;;;;5010350;28;20080;-47
2022/10/02 11:10:39;;;;;;;1.48;1.38;;;14.30;99.90;;;;;;5011556;28;20492;-45
2022/10/02 11:13:31;;;;;;;1.90;1.40;;;14.30;99.90;;;;;;5012012;28;20513;-46
2022/10/02 11:16:12;;;;;;;2.17;1.13;;;14.30;99.90;;;;;;5012045;28;20025;-46
2022/10/02 11:18:44;;;;;;;3.15;1.40;;;14.30;99.90;;;;;;5010230;28;20484;-45
2022/10/02 11:21:38;;;;;;;0.90;0.90;;;14.40;99.90;;;;;;5011920;28;20052;-46
2022/10/02 11:24:06;;;;;;;1.15;1.05;;;14.40;99.90;;;;;;5010420;28;20156;-45
2022/10/02 11:26:40;;;;;;;0.82;0.63;;;14.50;99.90;;;;;;5011697;28;20033;-45
2022/10/02 11:29:08;;;;;;;0.80;0.80;;;14.50;99.90;;;;;;5011690;28;20057;-46
2022/10/02 11:31:49;;;;;;;0.70;0.70;;;14.50;99.90;;;;;;5009699;28;20057;-47
2022/10/02 11:34:52;;;;;;;2.47;0.70;;;14.40;99.90;;;;;;5010506;28;20445;-49
2022/10/02 11:37:37;;;;;;;0.82;0.60;;;14.40;99.90;;;;;;5010010;28;20065;-47
2022/10/02 11:40:18;;;;;;;1.40;0.90;;;14.50;99.90;;;;;;5010290;28;20034;-46
2022/10/02 11:42:55;;;;;;;1.15;0.73;;;14.40;99.90;;;;;;5009874;28;20018;-45
2022/10/02 11:45:28;;;;;;;2.10;1.30;;;14.40;99.90;;;;;;5010455;28;20026;-48
2022/10/02 11:48:17;;;;;;;1.25;0.80;;;14.50;99.90;;;;;;5011656;28;20026;-47
2022/10/02 11:51:16;;;;;;;0.68;0.68;;;14.40;99.90;;;;;;5010195;28;20400;-45
2022/10/02 11:54:06;;;;;;;1.02;0.70;;;14.50;99.90;;;;;;4968176;28;20077;-47
2022/10/02 11:57:08;;;;;;;1.73;1.00;;;14.50;99.90;;;;;;5011430;28;20389;-47
2022/10/02 12:00:13;;;;;;;0.50;0.50;;;14.40;99.90;;;;;;5011037;28;20034;-45
2022/10/02 12:03:00;;;;;;;2.40;0.75;;;14.50;99.90;;;;;;5010679;28;20056;-45
2022/10/02 12:05:53;;;;;;;0.88;0.43;;;14.50;99.90;;;;;;5011426;28;20022;-44
2022/10/02 12:08:29;;;;;;;0.50;0.50;;;14.50;99.90;;;;;;5009379;28;20421;-48
2022/10/02 12:11:05;;;;;;;1.63;0.90;;;14.60;99.90;;;;;;5009261;28;20101;-46
2022/10/02 12:14:11;;;;;;;8.55;5.97;;;14.60;99.90;;;;;;5010971;28;20018;-52
2022/10/02 12:16:42;;;;;;;13.15;9.43;;;14.60;99.90;;;;;;5012279;28;20393;-48
2022/10/02 12:19:25;;;;;;;1.67;0.90;;;14.60;99.90;;;;;;5015136;28;20022;-45
2022/10/02 12:28:27;;;;;;;0.95;0.47;;;14.70;99.90;;;;;;5014776;28;20508;-46
2022/10/02 12:31:17;;;;;;;3.50;0.50;;;14.60;99.90;;;;;;5014996;28;20029;-45
2022/10/02 12:34:00;;;;;;;0.60;0.38;;;14.70;99.90;;;;;;5014790;28;20766;-48
2022/10/02 12:37:01;;;;;;;0.45;0.30;;;14.70;99.90;;;;;;5015468;28;20452;-46
2022/10/02 12:39:49;;;;;;;2.25;0.50;;;14.80;99.90;;;;;;5014563;28;20022;-46
2022/10/02 12:42:44;;;;;;;0.45;0.45;;;14.70;99.90;;;;;;5014666;28;20490;-45
2022/10/02 12:45:30;;;;;;;1.25;0.60;;;14.70;99.90;;;;;;5015013;28;20018;-46
2022/10/02 12:48:22;;;;;;;0.60;0.60;;;14.80;99.90;;;;;;4996991;28;20049;-46
2022/10/02 12:51:21;;;;;;;1.52;0.40;;;14.80;99.90;;;;;;5013023;28;20026;-45
2022/10/02 12:54:05;;;;;;;0.75;0.75;;;14.80;99.90;;;;;;5014339;28;20022;-49
2022/10/02 12:56:58;;;;;;;0.32;0.32;;;14.90;99.90;;;;;;5014452;28;20022;-47
2022/10/02 12:59:57;;;;;;;0.85;0.57;;;15.00;99.90;;;;;;5013725;28;20393;-47
2022/10/02 13:02:25;;;;;;;2.83;0.50;;;14.90;99.90;;;;;;5014766;28;20026;-46
2022/10/02 13:05:09;;;;;;;0.40;0.40;;;14.90;99.90;;;;;;5014875;28;20041;-47
2022/10/02 13:08:05;;;;;;;3.10;0.73;;;14.90;99.90;;;;;;5014249;28;20053;-46
2022/10/02 13:10:47;;;;;;;2.03;0.70;;;14.90;99.90;;;;;;5001094;28;20034;-47
2022/10/02 13:13:26;;;;;;;0.93;0.68;;;14.90;99.90;;;;;;5013799;28;20037;-44
2022/10/02 13:16:01;;;;;;;0.57;0.57;;;14.90;99.90;;;;;;5014152;28;20026;-51
2022/10/02 13:18:46;;;;;;;0.70;0.70;;;15.00;99.90;;;;;;5014048;28;20033;-48
2022/10/02 13:21:21;;;;;;;37.60;25.87;;;15.00;99.90;;;;;;5014331;28;20053;-48
2022/10/02 13:23:52;;;;;;;14.38;9.02;;;15.00;99.90;;;;;;5013569;28;20125;-46
2022/10/02 13:26:26;;;;;;;2.53;2.28;;;14.90;99.90;;;;;;5013894;28;20076;-47
2022/10/02 13:29:15;;;;;;;0.95;0.70;;;15.00;99.90;;;;;;5012807;28;20116;-48
2022/10/02 13:32:02;;;;;;;0.75;0.70;;;15.00;99.90;;;;;;5012492;28;20064;-45
2022/10/02 13:34:58;;;;;;;0.88;0.52;;;15.00;99.90;;;;;;5013827;28;20088;-46
2022/10/02 13:37:33;;;;;;;0.40;0.40;;;15.00;99.90;;;;;;5013787;28;20030;-45
2022/10/02 13:40:02;;;;;;;;;;;15.00;99.90;;;;;;5014031;28;20493;-47
2022/10/02 13:42:47;;;;;;;1.02;0.40;;;15.00;99.90;;;;;;5013326;28;20181;-46
2022/10/02 13:45:39;;;;;;;1.25;0.75;;;15.00;99.90;;;;;;5013514;28;20022;-44
2022/10/02 13:48:42;;;;;;;2.38;0.40;;;15.00;99.90;;;;;;5013417;28;20034;-45
2022/10/02 13:51:20;;;;;;;0.68;0.68;;;15.00;99.90;;;;;;5012995;28;20493;-45
2022/10/02 13:54:03;;;;;;;0.50;0.50;;;15.00;99.90;;;;;;5013168;28;20053;-47
2022/10/02 13:57:01;;;;;;;0.50;0.50;;;14.90;99.90;;;;;;5013424;28;20022;-47
2022/10/02 13:59:58;;;;;;;1.60;0.70;;;14.90;99.90;;;;;;5013344;28;20485;-45
2022/10/02 14:02:32;;;;;;;;;;;14.90;99.90;;;;;;5013515;28;20024;-46
2022/10/02 14:05:25;;;;;;;1.65;0.70;;;14.90;99.90;;;;;;5013525;28;19909;-45
2022/10/02 14:08:37;;;;;;;0.60;0.60;;;14.90;99.90;;;;;;5013662;28;20277;-46
2022/10/02 14:11:05;;;;;;;1.35;0.50;;;14.90;99.90;;;;;;5008229;28;20049;-47